Time;durP1;ratioP1;P1;durP2;ratioP2;P2;SDS_P1;SDS_P2;PMS_P1;PMS_P2;Temp;Humidity;BMP_temperature;BMP_pressure;BME280_temperature;BME280_humidity;BME280_pressure;Samples;Min_cycle;Max_cycle;Signal;HPM_P1;HPM_P2
2022/10/18 00:01:27;;;;;;;;;;;;;;;17.29;63.12;101712.53;5070377;28;20493;-33
2022/10/18 00:03:52;;;;;;;;;;;;;;;17.26;63.30;101709.91;5071280;28;20339;-32
2022/10/18 00:06:17;;;;;;;;;;;;;;;17.24;63.25;101711.75;5068678;28;19919;-33
2022/10/18 00:08:42;;;;;;;;;;;;;;;17.22;63.23;101713.56;5063584;28;19920;-32
2022/10/18 00:11:08;;;;;;;;;;;;;;;17.20;63.21;101712.72;5066834;28;19912;-32
2022/10/18 00:13:33;;;;;;;;;;;;;;;17.18;63.30;101707.41;5054566;28;20372;-33
2022/10/18 00:15:59;;;;;;;;;;;;;;;17.17;63.34;101710.97;5069949;28;20353;-32
2022/10/18 00:18:25;;;;;;;;;;;;;;;17.16;63.41;101709.22;5067340;28;19913;-32
2022/10/18 00:21:00;;;;;;;;;;;;;;;17.13;63.38;101720.84;5050981;28;20236;-32
2022/10/18 00:23:26;;;;;;;;;;;;;;;17.12;63.36;101720.84;5065211;28;19912;-32
2022/10/18 00:26:03;;;;;;;;;;;;;;;17.10;63.37;101720.03;5051597;28;19917;-33
2022/10/18 00:28:28;;;;;;;;;;;;;;;17.09;63.36;101721.81;5068712;28;19990;-32
2022/10/18 00:30:53;;;;;;;;;;;;;;;17.07;63.39;101717.41;5052246;28;19950;-33
2022/10/18 00:33:18;;;;;;;;;;;;;;;17.05;63.47;101709.41;5069427;28;19918;-32
2022/10/18 00:35:44;;;;;;;;;;;;;;;17.04;63.64;101713.88;5068640;28;19912;-33
2022/10/18 00:38:09;;;;;;;;;;;;;;;17.03;63.78;101713.88;5069452;28;20349;-32
2022/10/18 00:40:34;;;;;;;;;;;;;;;17.02;63.70;101713.03;5054343;28;19908;-32
2022/10/18 00:42:59;;;;;;;;;;;;;;;17.01;63.92;101715.72;5070029;28;19913;-31
2022/10/18 00:45:25;;;;;;;;;;;;;;;16.97;63.79;101704.22;5068612;28;20325;-32
2022/10/18 00:47:53;;;;;;;;;;;;;;;16.98;63.79;101719.31;5070260;28;19920;-32
2022/10/18 00:50:18;;;;;;;;;;;;;;;16.96;63.95;101723.78;5045058;28;19952;-33
2022/10/18 00:52:52;;;;;;;;;;;;;;;16.95;64.09;101716.72;5052589;28;20344;-32
2022/10/18 00:55:17;;;;;;;;;;;;;;;16.93;64.06;101707.88;5060806;28;19916;-32
2022/10/18 00:57:42;;;;;;;;;;;;;;;16.93;64.04;101705.19;5055535;28;19912;-32
2022/10/18 01:00:08;;;;;;;;;;;;;;;16.92;63.99;101723.00;5053285;28;19912;-32
2022/10/18 01:02:35;;;;;;;;;;;;;;;16.91;64.27;101710.56;5051271;28;19912;-32
2022/10/18 01:05:00;;;;;;;;;;;;;;;16.90;64.13;101705.25;5049743;28;19912;-32
2022/10/18 01:07:42;;;;;;;;;;;;;;;16.90;64.52;101705.25;5067233;28;19938;-32
2022/10/18 01:10:14;;;;;;;;;;;;;;;16.89;65.48;101706.16;5070387;28;19935;-32
2022/10/18 01:12:48;;;;;;;;;;;;;;;16.88;65.69;101707.09;5064287;28;19912;-32
2022/10/18 01:15:13;;;;;;;;;;;;;;;16.88;65.61;101723.06;5068804;28;20379;-32
2022/10/18 01:17:38;;;;;;;;;;;;;;;16.86;65.38;101716.88;5068079;28;19964;-32
2022/10/18 01:20:18;;;;;;;;;;;;;;;16.87;65.74;101724.84;5054623;28;19919;-32
2022/10/18 01:22:44;;;;;;;;;;;;;;;16.85;66.11;101728.44;5068171;28;19920;-32
2022/10/18 01:25:16;;;;;;;;;;;;;;;16.86;66.45;101732.88;5050224;28;20298;-31
2022/10/18 01:27:56;;;;;;;;;;;;;;;16.85;66.49;101733.78;5067422;28;20117;-32
2022/10/18 01:30:22;;;;;;;;;;;;;;;16.85;66.43;101733.78;5069144;28;19916;-32
2022/10/18 01:32:48;;;;;;;;;;;;;;;16.83;66.38;101719.59;5069212;28;19924;-32
2022/10/18 01:35:15;;;;;;;;;;;;;;;16.83;65.90;101727.59;5049360;28;19966;-32
2022/10/18 01:37:40;;;;;;;;;;;;;;;16.82;65.75;101721.41;5054214;28;20007;-32
2022/10/18 01:40:06;;;;;;;;;;;;;;;16.82;65.51;101726.72;5049184;28;20008;-32
2022/10/18 01:42:31;;;;;;;;;;;;;;;16.82;65.36;101725.84;5063800;28;20024;-32
2022/10/18 01:44:56;;;;;;;;;;;;;;;16.80;65.59;101718.75;5069119;28;19966;-32
2022/10/18 01:47:21;;;;;;;;;;;;;;;16.80;65.38;101724.09;5049828;28;19920;-32
2022/10/18 01:49:46;;;;;;;;;;;;;;;16.80;65.40;101724.09;5052285;28;19917;-32
2022/10/18 01:52:13;;;;;;;;;;;;;;;16.80;65.53;101712.53;5065813;28;19935;-32
2022/10/18 01:54:38;;;;;;;;;;;;;;;16.79;65.23;101721.44;5071929;28;19922;-32
2022/10/18 01:57:23;;;;;;;;;;;;;;;16.78;65.29;101711.72;5054343;28;20006;-32
2022/10/18 01:59:51;;;;;;;;;;;;;;;16.76;65.38;101703.75;5074704;28;20021;-32
2022/10/18 02:02:25;;;;;;;;;;;;;;;16.78;65.44;101712.56;5072341;28;20382;-32
2022/10/18 02:04:53;;;;;;;;;;;;;;;16.76;65.46;101716.16;5074297;28;19919;-32
2022/10/18 02:07:18;;;;;;;;;;;;;;;16.77;65.47;101723.25;5052156;28;20265;-32
2022/10/18 02:09:49;;;;;;;;;;;;;;;16.77;65.66;101720.59;5075761;28;19916;-32
2022/10/18 02:12:14;;;;;;;;;;;;;;;16.74;65.63;101724.19;5052873;28;19948;-32
2022/10/18 02:14:39;;;;;;;;;;;;;;;16.75;65.76;101725.06;5054912;28;19962;-32
2022/10/18 02:17:05;;;;;;;;;;;;;;;16.75;65.83;101715.31;5068680;28;19968;-32
2022/10/18 02:19:32;;;;;;;;;;;;;;;16.74;66.21;101726.00;5072976;28;19916;-32
2022/10/18 02:21:57;;;;;;;;;;;;;;;16.74;65.47;101724.19;5038298;28;19962;-32
2022/10/18 02:24:24;;;;;;;;;;;;;;;16.73;65.34;101738.41;5067470;28;19948;-32
2022/10/18 02:26:49;;;;;;;;;;;;;;;16.73;65.60;101732.19;5068683;28;20307;-32
2022/10/18 02:29:14;;;;;;;;;;;;;;;16.73;65.40;101738.41;5071265;28;19938;-32
2022/10/18 02:31:43;;;;;;;;;;;;;;;16.72;65.38;101741.09;5070417;28;19913;-32
2022/10/18 02:34:14;;;;;;;;;;;;;;;16.73;65.21;101737.53;5073580;28;19981;-32
2022/10/18 02:36:41;;;;;;;;;;;;;;;16.72;65.41;101739.34;5072679;28;19966;-32
2022/10/18 02:39:13;;;;;;;;;;;;;;;16.72;65.12;101738.44;5065763;28;20006;-31
2022/10/18 02:41:38;;;;;;;;;;;;;;;16.71;65.12;101745.59;5075099;28;20283;-32
2022/10/18 02:44:03;;;;;;;;;;;;;;;16.70;65.37;101741.13;5069014;28;20345;-32
2022/10/18 02:46:29;;;;;;;;;;;;;;;16.70;65.26;101738.47;5069306;28;19916;-32
2022/10/18 02:48:54;;;;;;;;;;;;;;;16.69;65.28;101744.72;5064464;28;19958;-32
2022/10/18 02:51:19;;;;;;;;;;;;;;;16.69;65.03;101752.69;5067779;28;20172;-32
2022/10/18 02:53:44;;;;;;;;;;;;;;;16.69;65.08;101758.03;5072469;28;19919;-32
2022/10/18 02:56:09;;;;;;;;;;;;;;;16.69;64.99;101747.38;5063281;28;19920;-32
2022/10/18 02:58:35;;;;;;;;;;;;;;;16.69;65.01;101742.06;5068578;28;19917;-32
2022/10/18 03:01:00;;;;;;;;;;;;;;;16.69;64.84;101752.69;5068754;28;19959;-32
2022/10/18 03:03:25;;;;;;;;;;;;;;;16.71;65.14;101750.00;5052731;28;19962;-32
2022/10/18 03:05:51;;;;;;;;;;;;;;;16.69;65.17;101752.69;5052034;28;20389;-33
2022/10/18 03:08:16;;;;;;;;;;;;;;;16.68;65.01;101751.81;5051656;28;20341;-33
2022/10/18 03:10:45;;;;;;;;;;;;;;;16.68;65.42;101757.13;5045552;28;19921;-32
2022/10/18 03:13:10;;;;;;;;;;;;;;;16.67;65.16;101752.72;5061859;28;19908;-32
2022/10/18 03:15:35;;;;;;;;;;;;;;;16.68;64.87;101758.94;5061785;28;20323;-31
2022/10/18 03:18:01;;;;;;;;;;;;;;;16.70;65.38;101761.59;5071260;28;19950;-32
2022/10/18 03:20:26;;;;;;;;;;;;;;;16.69;64.95;101768.69;5067746;28;20415;-32
2022/10/18 03:22:51;;;;;;;;;;;;;;;16.68;64.88;101766.94;5072412;28;19931;-33
2022/10/18 03:25:16;;;;;;;;;;;;;;;16.68;64.99;101762.47;5063930;28;20295;-32
2022/10/18 03:27:42;;;;;;;;;;;;;;;16.69;65.17;101774.00;5069633;28;19912;-32
2022/10/18 03:30:08;;;;;;;;;;;;;;;16.68;65.04;101772.25;5072398;28;19932;-32
2022/10/18 03:32:33;;;;;;;;;;;;;;;16.67;65.13;101766.03;5074150;28;19912;-31
2022/10/18 03:34:58;;;;;;;;;;;;;;;16.68;65.09;101775.78;5069968;28;19908;-32
2022/10/18 03:37:24;;;;;;;;;;;;;;;16.68;64.97;101774.94;5069325;28;19944;-32
2022/10/18 03:39:49;;;;;;;;;;;;;;;16.69;64.97;101776.69;5053316;28;20571;-33
2022/10/18 03:42:14;;;;;;;;;;;;;;;16.68;65.13;101772.25;5068212;28;20011;-33
2022/10/18 03:44:39;;;;;;;;;;;;;;;16.69;65.23;101779.34;5069790;28;19913;-33
2022/10/18 03:47:05;;;;;;;;;;;;;;;16.68;64.98;101774.94;5064039;28;19985;-33
2022/10/18 03:49:30;;;;;;;;;;;;;;;16.68;65.06;101772.25;5072135;28;19919;-32
2022/10/18 03:51:55;;;;;;;;;;;;;;;16.68;65.34;101756.28;5066181;28;20006;-34
2022/10/18 03:54:20;;;;;;;;;;;;;;;16.68;65.49;101759.81;5052522;28;19912;-32
2022/10/18 03:56:45;;;;;;;;;;;;;;;16.70;65.52;101761.59;5070617;28;20143;-33
2022/10/18 03:59:11;;;;;;;;;;;;;;;16.69;65.61;101763.34;5070510;28;19956;-33
2022/10/18 04:01:36;;;;;;;;;;;;;;;16.70;65.42;101762.44;5054912;28;19999;-32
2022/10/18 04:04:01;;;;;;;;;;;;;;;16.70;65.45;101758.91;5046082;28;19924;-33
2022/10/18 04:06:27;;;;;;;;;;;;;;;16.70;65.32;101762.44;5070689;28;20271;-33
2022/10/18 04:08:53;;;;;;;;;;;;;;;16.70;65.38;101764.25;5071041;28;19912;-33
2022/10/18 04:11:18;;;;;;;;;;;;;;;16.69;65.35;101763.34;5059635;28;20307;-33
2022/10/18 04:13:43;;;;;;;;;;;;;;;16.68;65.26;101761.59;5068528;28;19952;-33
2022/10/18 04:16:09;;;;;;;;;;;;;;;16.68;65.45;101759.81;5069045;28;19935;-32
2022/10/18 04:18:34;;;;;;;;;;;;;;;16.69;65.85;101758.03;5066615;28;19912;-32
2022/10/18 04:20:59;;;;;;;;;;;;;;;16.70;65.80;101759.78;5070200;28;19995;-33
2022/10/18 04:23:24;;;;;;;;;;;;;;;16.70;66.54;101758.91;5069839;28;19912;-33
2022/10/18 04:25:50;;;;;;;;;;;;;;;16.69;65.96;101755.38;5069396;28;20291;-32
2022/10/18 04:28:15;;;;;;;;;;;;;;;16.68;65.87;101751.81;5051951;28;20002;-33
2022/10/18 04:30:40;;;;;;;;;;;;;;;16.68;65.86;101745.63;5068984;28;19920;-33
2022/10/18 04:33:05;;;;;;;;;;;;;;;16.69;65.85;101744.72;5051378;28;20180;-33
2022/10/18 04:35:31;;;;;;;;;;;;;;;16.69;65.56;101742.06;5068086;28;19974;-33
2022/10/18 04:37:56;;;;;;;;;;;;;;;16.67;65.61;101751.84;5050815;28;19926;-32
2022/10/18 04:40:21;;;;;;;;;;;;;;;16.68;65.69;101745.63;5050448;28;19971;-32
2022/10/18 04:42:46;;;;;;;;;;;;;;;16.69;66.15;101752.69;5054656;28;19927;-32
2022/10/18 04:45:12;;;;;;;;;;;;;;;16.67;66.13;101750.06;5069488;28;20337;-33
2022/10/18 04:47:37;;;;;;;;;;;;;;;16.68;66.20;101745.63;5044272;28;20454;-33
2022/10/18 04:50:02;;;;;;;;;;;;;;;16.68;66.12;101745.63;5053385;28;19919;-32
2022/10/18 04:52:27;;;;;;;;;;;;;;;16.69;66.28;101736.72;5068241;28;20367;-32
2022/10/18 04:54:53;;;;;;;;;;;;;;;16.67;66.11;101734.09;5048999;28;19916;-32
2022/10/18 04:57:18;;;;;;;;;;;;;;;16.68;66.08;101729.66;5046417;28;19916;-33
2022/10/18 04:59:43;;;;;;;;;;;;;;;16.68;66.01;101730.50;5069542;28;19917;-32
2022/10/18 05:02:08;;;;;;;;;;;;;;;16.68;66.27;101729.66;5068824;28;19919;-32
2022/10/18 05:04:34;;;;;;;;;;;;;;;16.67;65.87;101728.75;5068589;28;19913;-33
2022/10/18 05:06:59;;;;;;;;;;;;;;;16.67;66.00;101722.53;5071343;28;19931;-32
2022/10/18 05:09:24;;;;;;;;;;;;;;;16.68;66.13;101726.97;5069738;28;21519;-32
2022/10/18 05:11:49;;;;;;;;;;;;;;;16.68;66.19;101724.31;5068335;28;20394;-32
2022/10/18 05:14:15;;;;;;;;;;;;;;;16.66;66.48;101723.44;5070709;28;20425;-33
2022/10/18 05:16:40;;;;;;;;;;;;;;;16.66;66.64;101720.78;5069310;28;19916;-33
2022/10/18 05:19:05;;;;;;;;;;;;;;;16.67;67.29;101711.88;5052742;28;19956;-33
2022/10/18 05:21:31;;;;;;;;;;;;;;;16.67;66.98;101717.22;5052100;28;19952;-33
2022/10/18 05:23:56;;;;;;;;;;;;;;;16.66;66.52;101704.81;5051715;28;19912;-33
2022/10/18 05:26:21;;;;;;;;;;;;;;;16.65;66.29;101698.63;5053018;28;19962;-32
2022/10/18 05:28:48;;;;;;;;;;;;;;;16.66;66.91;101697.72;5071671;28;19917;-32
2022/10/18 05:31:13;;;;;;;;;;;;;;;16.66;66.62;101703.03;5052171;28;19919;-33
2022/10/18 05:33:38;;;;;;;;;;;;;;;16.66;66.79;101700.38;5056862;28;20019;-32
2022/10/18 05:36:03;;;;;;;;;;;;;;;16.66;66.82;101702.16;5063952;28;20003;-33
2022/10/18 05:38:29;;;;;;;;;;;;;;;16.65;66.83;101708.38;5052002;28;19923;-33
2022/10/18 05:40:55;;;;;;;;;;;;;;;16.64;66.86;101702.16;5052702;28;19912;-33
2022/10/18 05:43:20;;;;;;;;;;;;;;;16.64;66.76;101702.16;5071863;28;19950;-32
2022/10/18 05:45:49;;;;;;;;;;;;;;;16.64;66.68;101695.97;5071831;28;20363;-32
2022/10/18 05:48:14;;;;;;;;;;;;;;;16.63;66.59;101703.09;5068764;28;19916;-33
2022/10/18 05:50:39;;;;;;;;;;;;;;;16.64;66.67;101706.63;5069734;28;20433;-33
2022/10/18 05:53:04;;;;;;;;;;;;;;;16.63;66.71;101705.75;5061218;28;19931;-32
2022/10/18 05:55:30;;;;;;;;;;;;;;;16.63;66.45;101694.22;5051690;28;19913;-33
2022/10/18 05:57:55;;;;;;;;;;;;;;;16.63;67.13;101691.53;5056191;28;19909;-33
2022/10/18 06:00:20;;;;;;;;;;;;;;;16.63;67.15;101688.88;5070142;28;20386;-32
2022/10/18 06:02:45;;;;;;;;;;;;;;;16.63;67.42;101694.22;5068898;28;19908;-33
2022/10/18 06:05:11;;;;;;;;;;;;;;;16.62;66.87;101698.69;5070452;28;20377;-33
2022/10/18 06:07:36;;;;;;;;;;;;;;;16.62;67.29;101704.00;5064970;28;19913;-33
2022/10/18 06:10:01;;;;;;;;;;;;;;;16.61;67.84;101704.88;5049487;28;19915;-32
2022/10/18 06:12:26;;;;;;;;;;;;;;;16.60;67.59;101702.28;5051588;28;20013;-33
2022/10/18 06:14:52;;;;;;;;;;;;;;;16.60;67.10;101703.13;5051514;28;19919;-32
2022/10/18 06:17:17;;;;;;;;;;;;;;;16.62;67.37;101719.09;5060046;28;19909;-32
2022/10/18 06:19:43;;;;;;;;;;;;;;;16.62;67.40;101713.75;5068981;28;19912;-32
2022/10/18 06:22:08;;;;;;;;;;;;;;;16.62;67.13;101719.09;5070973;28;20023;-32
2022/10/18 06:24:34;;;;;;;;;;;;;;;16.61;67.07;101718.19;5070168;28;20561;-32
2022/10/18 06:26:59;;;;;;;;;;;;;;;16.61;67.35;101720.00;5071277;28;20007;-32
2022/10/18 06:29:24;;;;;;;;;;;;;;;16.61;67.50;101717.34;5053167;28;20367;-33
2022/10/18 06:31:49;;;;;;;;;;;;;;;16.60;67.27;101721.78;5055020;28;20391;-32
2022/10/18 06:34:15;;;;;;;;;;;;;;;16.61;67.49;101733.31;5073366;28;20283;-32
2022/10/18 06:36:40;;;;;;;;;;;;;;;16.59;67.27;101736.00;5064455;28;20280;-33
2022/10/18 06:39:05;;;;;;;;;;;;;;;16.58;67.13;101752.00;5052782;28;19939;-32
2022/10/18 06:41:30;;;;;;;;;;;;;;;16.58;67.72;101749.34;5056301;28;20279;-33
2022/10/18 06:43:57;;;;;;;;;;;;;;;16.59;67.92;101754.66;5073236;28;19972;-32
2022/10/18 06:46:22;;;;;;;;;;;;;;;16.59;68.03;101740.44;5075636;28;20424;-32
2022/10/18 06:48:48;;;;;;;;;;;;;;;16.58;68.21;101744.91;5070953;28;20002;-33
2022/10/18 06:51:14;;;;;;;;;;;;;;;16.57;68.26;101748.47;5066032;28;19982;-32
2022/10/18 06:53:39;;;;;;;;;;;;;;;16.59;68.28;101735.13;5074462;28;19912;-33
2022/10/18 06:56:06;;;;;;;;;;;;;;;16.58;68.20;101739.59;5056585;28;19915;-33
2022/10/18 06:58:32;;;;;;;;;;;;;;;16.58;68.59;101738.69;5072803;28;20447;-33
2022/10/18 07:00:57;;;;;;;;;;;;;;;16.58;68.84;101739.59;5074019;28;19950;-33
2022/10/18 07:03:22;;;;;;;;;;;;;;;16.55;67.91;101748.47;5073998;28;20352;-33
2022/10/18 07:05:48;;;;;;;;;;;;;;;16.56;68.53;101757.34;5066591;28;19996;-33
2022/10/18 07:08:14;;;;;;;;;;;;;;;16.57;67.88;101760.91;5054491;28;19916;-32
2022/10/18 07:10:39;;;;;;;;;;;;;;;16.57;67.51;101766.25;5070781;28;20260;-33
2022/10/18 07:13:04;;;;;;;;;;;;;;;16.57;68.27;101758.25;5072895;28;19954;-32
2022/10/18 07:15:29;;;;;;;;;;;;;;;16.57;68.48;101763.56;5074235;28;19912;-31
2022/10/18 07:17:55;;;;;;;;;;;;;;;16.58;68.15;101765.31;5074120;28;19912;-33
2022/10/18 07:20:21;;;;;;;;;;;;;;;16.57;68.42;101774.22;5074235;28;19908;-33
2022/10/18 07:22:46;;;;;;;;;;;;;;;16.56;68.46;101768.00;5075839;28;19912;-33
2022/10/18 07:25:11;;;;;;;;;;;;;;;16.56;68.77;101776.00;5056952;28;19999;-32
2022/10/18 07:27:37;;;;;;;;;;;;;;;16.57;68.63;101779.56;5075684;28;19916;-33
2022/10/18 07:30:04;;;;;;;;;;;;;;;16.56;68.65;101776.00;5073722;28;20379;-33
2022/10/18 07:32:29;;;;;;;;;;;;;;;16.55;68.92;101777.78;5074139;28;19908;-33
2022/10/18 07:34:54;;;;;;;;;;;;;;;16.55;69.19;101774.25;5073469;28;19913;-32
2022/10/18 07:37:19;;;;;;;;;;;;;;;16.56;68.85;101776.00;5084445;28;19943;-33
2022/10/18 07:39:45;;;;;;;;;;;;;;;16.57;69.15;101779.56;5069303;28;19916;-33
2022/10/18 07:42:10;;;;;;;;;;;;;;;16.57;69.29;101782.22;5074102;28;19995;-32
2022/10/18 07:44:35;;;;;;;;;;;;;;;16.57;69.27;101782.22;5074889;28;19916;-33
2022/10/18 07:47:00;;;;;;;;;;;;;;;16.55;68.79;101783.09;5072362;28;20026;-32
2022/10/18 07:49:26;;;;;;;;;;;;;;;16.58;69.03;101789.28;5075777;28;19969;-31
2022/10/18 07:51:51;;;;;;;;;;;;;;;16.55;69.43;101793.75;5073740;28;19919;-33
2022/10/18 07:54:16;;;;;;;;;;;;;;;16.55;68.97;101793.75;5054193;28;19908;-32
2022/10/18 07:56:41;;;;;;;;;;;;;;;16.57;69.05;101800.84;5073522;28;20010;-32
2022/10/18 07:59:07;;;;;;;;;;;;;;;16.55;68.71;101799.06;5071307;28;20308;-33
2022/10/18 08:01:33;;;;;;;;;;;;;;;16.57;68.82;101798.19;5055124;28;19913;-33
2022/10/18 08:03:59;;;;;;;;;;;;;;;16.57;69.34;101795.53;5056137;28;19916;-33
2022/10/18 08:06:25;;;;;;;;;;;;;;;16.57;69.23;101785.75;5074822;28;19908;-32
2022/10/18 08:08:51;;;;;;;;;;;;;;;16.58;70.20;101783.97;5074001;28;19912;-32
2022/10/18 08:11:17;;;;;;;;;;;;;;;16.55;69.56;101780.44;5074426;28;19912;-32
2022/10/18 08:13:42;;;;;;;;;;;;;;;16.55;69.04;101777.78;5075047;28;19956;-32
2022/10/18 08:16:09;;;;;;;;;;;;;;;16.56;69.65;101776.00;5075162;28;19981;-32
2022/10/18 08:18:34;;;;;;;;;;;;;;;16.56;69.23;101778.66;5056612;28;19951;-32
2022/10/18 08:21:00;;;;;;;;;;;;;;;16.57;69.21;101777.75;5055106;28;19947;-33
2022/10/18 08:23:25;;;;;;;;;;;;;;;16.57;70.13;101780.41;5071869;28;20305;-33
2022/10/18 08:25:51;;;;;;;;;;;;;;;16.57;69.97;101768.91;5071936;28;19962;-33
2022/10/18 08:28:16;;;;;;;;;;;;;;;16.57;69.90;101772.41;5055749;28;19912;-32
2022/10/18 08:30:41;;;;;;;;;;;;;;;16.58;69.70;101768.00;5072791;28;19920;-33
2022/10/18 08:33:07;;;;;;;;;;;;;;;16.57;69.50;101767.09;5072580;28;19908;-32
2022/10/18 08:35:32;;;;;;;;;;;;;;;16.57;69.07;101760.91;5070747;28;19912;-32
2022/10/18 08:37:58;;;;;;;;;;;;;;;16.56;69.37;101762.69;5071806;28;19908;-32
2022/10/18 08:40:25;;;;;;;;;;;;;;;16.58;70.94;101765.31;5063184;28;19917;-32
2022/10/18 08:43:09;;;;;;;;;;;;;;;16.58;70.47;101765.31;5071307;28;19952;-33
2022/10/18 08:45:36;;;;;;;;;;;;;;;16.58;70.83;101766.22;5070904;28;19912;-32
2022/10/18 08:48:01;;;;;;;;;;;;;;;16.58;70.59;101773.31;5072423;28;20375;-32
2022/10/18 08:50:30;;;;;;;;;;;;;;;16.57;70.19;101763.56;5054250;28;19919;-32
2022/10/18 08:53:13;;;;;;;;;;;;;;;16.58;70.33;101760.00;5071983;28;19962;-33
2022/10/18 08:55:43;;;;;;;;;;;;;;;16.58;69.80;101760.00;5065942;28;20039;-32
2022/10/18 08:58:16;;;;;;;;;;;;;;;16.58;70.12;101755.56;5069782;28;19913;-31
2022/10/18 09:00:43;;;;;;;;;;;;;;;16.57;70.10;101753.78;5071730;28;20450;-33
2022/10/18 09:03:11;;;;;;;;;;;;;;;16.58;69.71;101754.66;5054483;28;19927;-32
2022/10/18 09:05:50;;;;;;;;;;;;;;;16.58;69.74;101754.66;5072443;28;20383;-32
2022/10/18 09:08:18;;;;;;;;;;;;;;;16.58;69.86;101754.66;5071032;28;19916;-32
2022/10/18 09:10:52;;;;;;;;;;;;;;;16.57;69.63;101743.13;5063526;28;19913;-32
2022/10/18 09:13:20;;;;;;;;;;;;;;;16.58;71.13;101752.00;5052106;28;19916;-33
2022/10/18 09:15:45;;;;;;;;;;;;;;;16.58;70.00;101755.56;5064145;28;20007;-32
2022/10/18 09:18:11;;;;;;;;;;;;;;;16.58;70.31;101760.00;5071794;28;19963;-33
2022/10/18 09:20:39;;;;;;;;;;;;;;;16.57;70.13;101758.25;5072189;28;19909;-32
2022/10/18 09:23:05;;;;;;;;;;;;;;;16.58;70.03;101760.00;5070670;28;19912;-32
2022/10/18 09:25:40;;;;;;;;;;;;;;;16.58;70.09;101760.00;5070873;28;19920;-32
2022/10/18 09:28:05;;;;;;;;;;;;;;;16.59;69.80;101767.06;5071083;28;20379;-32
2022/10/18 09:30:39;;;;;;;;;;;;;;;16.60;69.79;101760.88;5052820;28;19912;-32
2022/10/18 09:33:13;;;;;;;;;;;;;;;16.60;69.33;101764.38;5072046;28;20298;-32
2022/10/18 09:35:42;;;;;;;;;;;;;;;16.60;68.70;101759.06;5073523;28;19909;-33
2022/10/18 09:38:08;;;;;;;;;;;;;;;16.62;68.70;101759.03;5069812;28;19919;-33
2022/10/18 09:40:35;;;;;;;;;;;;;;;16.62;68.89;101762.59;5048668;28;19912;-33
2022/10/18 09:43:02;;;;;;;;;;;;;;;16.62;69.62;101756.38;5050193;28;20394;-33
2022/10/18 09:45:31;;;;;;;;;;;;;;;16.63;69.68;101758.13;5050341;28;20307;-33
2022/10/18 09:48:02;;;;;;;;;;;;;;;16.63;69.42;101760.78;5052922;28;19917;-32
2022/10/18 09:50:33;;;;;;;;;;;;;;;16.62;69.39;101757.28;5053390;28;20017;-32
2022/10/18 09:53:01;;;;;;;;;;;;;;;16.63;69.61;101767.00;5052341;28;20310;-32
2022/10/18 09:55:29;;;;;;;;;;;;;;;16.64;70.50;101773.22;5070853;28;20367;-33
2022/10/18 09:57:55;;;;;;;;;;;;;;;16.64;69.61;101778.56;5033812;28;19983;-33
2022/10/18 10:00:23;;;;;;;;;;;;;;;16.65;68.84;101783.84;5053181;28;19951;-33
2022/10/18 10:02:48;;;;;;;;;;;;;;;16.64;68.92;101776.75;5072158;28;19912;-33
2022/10/18 10:05:14;;;;;;;;;;;;;;;16.66;68.79;101766.97;5071722;28;19908;-33
2022/10/18 10:07:43;;;;;;;;;;;;;;;16.67;69.01;101776.69;5049337;28;19917;-33
2022/10/18 10:10:17;;;;;;;;;;;;;;;16.67;68.93;101765.16;5049105;28;19917;-33
2022/10/18 10:12:43;;;;;;;;;;;;;;;16.68;69.19;101777.59;5052695;28;19916;-33
2022/10/18 10:15:19;;;;;;;;;;;;;;;16.68;69.21;101769.59;5054934;28;19958;-33
2022/10/18 10:17:53;;;;;;;;;;;;;;;16.69;68.92;101774.00;5057066;28;19918;-33
2022/10/18 10:20:19;;;;;;;;;;;;;;;16.69;68.49;101774.00;5053441;28;20066;-33
2022/10/18 10:22:45;;;;;;;;;;;;;;;16.71;68.85;101776.66;5070354;28;19922;-33
2022/10/18 10:25:30;;;;;;;;;;;;;;;16.71;68.51;101781.97;5055905;28;19919;-33
2022/10/18 10:27:55;;;;;;;;;;;;;;;16.71;68.64;101782.88;5074064;28;19916;-32
2022/10/18 10:30:21;;;;;;;;;;;;;;;16.72;68.49;101781.97;5056567;28;20015;-33
2022/10/18 10:32:47;;;;;;;;;;;;;;;16.72;68.42;101779.28;5074101;28;19934;-33
2022/10/18 10:35:20;;;;;;;;;;;;;;;16.73;68.55;101774.81;5063893;28;20102;-33
2022/10/18 10:37:50;;;;;;;;;;;;;;;16.74;68.31;101777.47;5068154;28;20232;-33
2022/10/18 10:40:17;;;;;;;;;;;;;;;16.73;68.37;101781.03;5074199;28;19912;-32
2022/10/18 10:42:54;;;;;;;;;;;;;;;16.73;68.54;101778.38;5074814;28;19912;-33
2022/10/18 10:45:19;;;;;;;;;;;;;;;16.75;68.33;101791.66;5073951;28;20473;-32
2022/10/18 10:47:45;;;;;;;;;;;;;;;16.75;68.52;101794.34;5065833;28;19995;-33
2022/10/18 10:50:11;;;;;;;;;;;;;;;16.77;68.48;101797.84;5055637;28;20004;-33
2022/10/18 10:52:36;;;;;;;;;;;;;;;16.77;68.28;101811.16;5057300;28;19915;-33
2022/10/18 10:55:02;;;;;;;;;;;;;;;16.76;68.43;101810.31;5074962;28;19999;-33
2022/10/18 10:57:27;;;;;;;;;;;;;;;16.78;68.54;101815.59;5071887;28;19939;-33
2022/10/18 10:59:53;;;;;;;;;;;;;;;16.78;68.42;101808.47;5037887;28;19912;-32
2022/10/18 11:02:25;;;;;;;;;;;;;;;16.79;68.42;101825.34;5074913;28;19961;-33
2022/10/18 11:04:51;;;;;;;;;;;;;;;16.79;68.59;101812.91;5074866;28;20364;-33
2022/10/18 11:07:38;;;;;;;;;;;;;;;16.79;68.60;101812.91;5074303;28;19998;-32
2022/10/18 11:10:06;;;;;;;;;;;;;;;16.79;68.52;101818.25;5070301;28;20046;-32
2022/10/18 11:12:41;;;;;;;;;;;;;;;16.80;68.55;101820.00;5059854;28;20321;-33
2022/10/18 11:15:12;;;;;;;;;;;;;;;16.82;68.58;101827.06;5073859;28;19962;-33
2022/10/18 11:17:38;;;;;;;;;;;;;;;16.80;68.67;101817.31;5067546;28;19908;-33
2022/10/18 11:20:06;;;;;;;;;;;;;;;16.82;69.24;101819.97;5068554;28;20007;-33
2022/10/18 11:22:32;;;;;;;;;;;;;;;16.82;69.19;101825.28;5074099;28;19942;-33
2022/10/18 11:24:58;;;;;;;;;;;;;;;16.83;69.76;101818.16;5056334;28;19999;-32
2022/10/18 11:27:34;;;;;;;;;;;;;;;16.82;69.39;101816.41;5073644;28;19988;-32
2022/10/18 11:30:23;;;;;;;;;;;;;;;16.83;69.09;101815.50;5075815;28;19966;-32
2022/10/18 11:32:52;;;;;;;;;;;;;;;16.82;69.37;101806.66;5050957;28;19960;-33
2022/10/18 11:35:37;;;;;;;;;;;;;;;16.84;69.12;101814.63;5053261;28;19919;-33
2022/10/18 12:52:13;;;;;;;;;;;;;;;16.86;72.15;101770.16;5168906;27;19930;-29
2022/10/18 12:54:39;;;;;;;;;;;;;;;16.94;71.54;101768.22;5125767;22;19975;-28
2022/10/18 12:57:05;;;;;;;;;;;;;;;17.00;70.53;101768.13;5104285;28;19919;-26
2022/10/18 12:59:30;;;;;;;;;;;;;;;17.06;70.65;101767.16;5074105;28;19925;-26
2022/10/18 13:01:58;;;;;;;;;;;;;;;17.12;70.44;101768.84;5100648;28;19935;-27
2022/10/18 13:04:33;;;;;;;;;;;;;;;17.17;70.39;101774.94;5042488;28;19988;-26
2022/10/18 13:07:07;;;;;;;;;;;;;;;17.20;69.75;101764.22;4865552;29;20296;-26
2022/10/18 13:14:18;;;;;;;;;;;;;;;17.29;69.73;101780.06;5180684;27;19934;-26
2022/10/18 13:16:49;;;;;;;;;;;;;;;17.34;69.52;101771.94;5141481;27;19934;-26
2022/10/18 13:19:17;;;;;;;;;;;;;;;17.36;69.64;101769.25;5137554;27;20354;-27
2022/10/18 13:21:43;;;;;;;;;;;;;;;17.39;70.08;101771.88;5140587;27;19930;-26
2022/10/18 13:24:10;;;;;;;;;;;;;;;17.40;69.45;101771.84;5002608;28;826517;-25
2022/10/18 13:26:51;;;;;;;;;;;;;;;17.42;69.26;101767.38;4918659;28;19947;-27
2022/10/18 13:29:22;;;;;;;;;;;;;;;17.46;68.98;101784.16;4912143;29;19926;-26
2022/10/18 13:31:57;;;;;;;;;;;;;;;17.47;69.14;101783.25;4925357;29;19930;-26
2022/10/18 13:34:33;;;;;;;;;;;;;;;17.49;69.04;101784.09;4927764;29;19924;-25
2022/10/18 13:37:00;;;;;;;;;;;;;;;17.50;69.13;101793.84;4928307;29;20022;-26
2022/10/18 13:39:25;;;;;;;;;;;;;;;17.52;68.84;101789.38;4928131;29;20022;-26
2022/10/18 13:41:56;;;;;;;;;;;;;;;17.53;69.11;101793.81;4912930;29;20422;-27
2022/10/18 13:44:27;;;;;;;;;;;;;;;17.54;68.81;101790.22;4913789;29;19916;-26
2022/10/18 13:46:55;;;;;;;;;;;;;;;17.55;70.52;101783.09;4927890;29;20239;-26
2022/10/18 13:49:20;;;;;;;;;;;;;;;17.55;69.32;101786.63;4905829;29;20027;-26
2022/10/18 13:51:52;;;;;;;;;;;;;;;17.57;68.95;101792.81;4911454;29;20063;-26
2022/10/18 13:54:35;;;;;;;;;;;;;;;17.57;68.76;101787.50;4913079;29;20008;-26